Time;durP1;ratioP1;P1;durP2;ratioP2;P2;SDS_P1;SDS_P2;PMS_P1;PMS_P2;Temp;Humidity;BMP_temperature;BMP_pressure;BME280_temperature;BME280_humidity;BME280_pressure;Samples;Min_cycle;Max_cycle;Signal;HPM_P1;HPM_P2
2023/11/27 00:02:22;;;;;;;10.60;7.35;;;7.10;99.90;;;;;;5042889;28;20020;-85
2023/11/27 00:04:51;;;;;;;9.45;7.45;;;7.10;99.90;;;;;;5076673;28;20078;-86
2023/11/27 00:07:17;;;;;;;10.93;7.57;;;7.00;99.90;;;;;;5076364;28;20169;-86
2023/11/27 00:09:42;;;;;;;10.57;7.65;;;7.00;99.90;;;;;;5058766;28;20104;-85
2023/11/27 00:12:08;;;;;;;10.60;7.45;;;7.00;99.90;;;;;;5076194;28;20028;-86
2023/11/27 00:14:34;;;;;;;14.27;8.13;;;7.00;99.90;;;;;;5059048;28;20033;-85
2023/11/27 00:17:00;;;;;;;12.10;7.82;;;7.00;99.90;;;;;;5042013;28;20032;-86
2023/11/27 00:19:26;;;;;;;12.20;7.82;;;7.00;99.90;;;;;;5076634;28;20029;-86
2023/11/27 00:21:52;;;;;;;10.77;7.43;;;7.00;99.90;;;;;;5076602;28;20025;-85
2023/11/27 00:24:19;;;;;;;9.00;6.88;;;7.00;99.90;;;;;;5041541;28;20265;-85
2023/11/27 00:26:44;;;;;;;9.23;7.35;;;7.00;99.90;;;;;;5058836;28;20028;-86
2023/11/27 00:29:10;;;;;;;10.23;7.53;;;7.00;99.90;;;;;;5025302;28;20124;-86
2023/11/27 00:31:36;;;;;;;11.07;7.53;;;7.00;99.90;;;;;;5042203;28;20024;-86
2023/11/27 00:34:01;;;;;;;8.07;6.72;;;7.00;99.90;;;;;;5058487;28;20024;-85
2023/11/27 00:36:27;;;;;;;9.25;6.55;;;7.00;99.90;;;;;;5076339;28;20535;-86
2023/11/27 00:38:52;;;;;;;10.90;7.25;;;7.00;99.90;;;;;;5041937;28;20032;-86
2023/11/27 00:41:18;;;;;;;9.23;7.40;;;7.00;99.90;;;;;;5041979;28;20078;-88
2023/11/27 00:43:45;;;;;;;10.50;7.72;;;7.10;99.90;;;;;;5058434;28;20158;-87
2023/11/27 00:46:11;;;;;;;10.48;7.60;;;7.00;99.90;;;;;;5058465;28;20472;-86
2023/11/27 00:48:37;;;;;;;12.45;7.68;;;7.10;99.90;;;;;;5076689;28;20373;-87
2023/11/27 00:51:04;;;;;;;10.70;7.38;;;7.10;99.90;;;;;;5060539;28;20032;-85
2023/11/27 00:53:30;;;;;;;11.65;7.43;;;7.00;99.90;;;;;;5045163;28;20033;-84
2023/11/27 00:55:55;;;;;;;11.75;8.25;;;7.10;99.90;;;;;;5057410;28;20054;-86
2023/11/27 00:58:21;;;;;;;10.43;7.15;;;7.00;99.90;;;;;;5064299;28;20054;-87
2023/11/27 01:00:46;;;;;;;11.77;7.60;;;7.00;99.90;;;;;;5097629;28;20090;-87
2023/11/27 01:03:12;;;;;;;10.38;7.40;;;7.00;99.90;;;;;;5053484;28;20033;-86
2023/11/27 01:05:38;;;;;;;11.05;7.60;;;6.90;99.90;;;;;;5046142;28;20028;-86
2023/11/27 01:08:04;;;;;;;9.02;6.63;;;6.90;99.90;;;;;;5059500;28;20116;-84
2023/11/27 01:10:31;;;;;;;9.90;6.80;;;6.90;99.90;;;;;;5041398;28;20127;-85
2023/11/27 01:12:57;;;;;;;11.70;7.28;;;7.00;99.90;;;;;;5075687;28;20143;-87
2023/11/27 01:15:23;;;;;;;10.90;7.10;;;7.00;99.90;;;;;;5075097;28;20384;-86
2023/11/27 01:17:49;;;;;;;9.63;7.05;;;7.00;99.90;;;;;;5075710;28;20460;-85
2023/11/27 01:20:15;;;;;;;10.25;6.78;;;7.00;99.90;;;;;;5075396;28;20071;-85
2023/11/27 01:22:41;;;;;;;10.52;6.75;;;7.00;99.90;;;;;;5075808;28;20058;-86
2023/11/27 01:25:07;;;;;;;12.23;7.05;;;7.00;99.90;;;;;;5075343;28;20033;-85
2023/11/27 01:27:33;;;;;;;9.63;6.72;;;6.90;99.90;;;;;;5057460;28;20445;-87
2023/11/27 01:30:01;;;;;;;9.38;7.05;;;6.90;99.90;;;;;;5057552;28;20064;-86
2023/11/27 01:32:27;;;;;;;9.85;6.53;;;7.00;99.90;;;;;;5075331;28;20033;-86
2023/11/27 01:34:53;;;;;;;8.77;6.90;;;6.90;99.90;;;;;;5057468;28;20029;-86
2023/11/27 01:37:19;;;;;;;8.02;6.80;;;7.00;99.90;;;;;;5074718;28;20035;-86
2023/11/27 01:39:44;;;;;;;9.75;6.43;;;7.00;99.90;;;;;;5074933;28;20028;-86
2023/11/27 01:42:10;;;;;;;9.77;6.88;;;7.00;99.90;;;;;;5040400;28;20062;-86
2023/11/27 01:44:39;;;;;;;10.90;6.80;;;6.90;99.90;;;;;;5040768;28;20029;-86
2023/11/27 01:47:05;;;;;;;11.40;6.20;;;6.90;99.90;;;;;;5074889;28;20029;-86
2023/11/27 01:49:32;;;;;;;7.85;5.35;;;7.00;99.90;;;;;;5057184;28;20045;-86
2023/11/27 01:52:00;;;;;;;8.15;6.15;;;7.00;99.90;;;;;;5056995;28;20079;-86
2023/11/27 01:54:29;;;;;;;11.25;6.28;;;6.90;99.90;;;;;;5039970;28;20079;-85
2023/11/27 01:56:57;;;;;;;8.43;5.93;;;6.90;99.90;;;;;;5057143;28;20400;-85
2023/11/27 01:59:23;;;;;;;6.88;5.53;;;6.90;99.90;;;;;;5040221;28;20055;-85
2023/11/27 02:01:49;;;;;;;10.02;6.35;;;6.90;99.90;;;;;;5074647;28;20103;-86
2023/11/27 02:04:14;;;;;;;9.73;5.97;;;6.90;99.90;;;;;;5040259;28;20101;-85
2023/11/27 02:06:40;;;;;;;9.25;6.25;;;6.90;99.90;;;;;;5056618;28;20029;-84
2023/11/27 02:09:07;;;;;;;10.93;6.25;;;6.90;99.90;;;;;;5056294;28;20076;-86
2023/11/27 02:11:50;;;;;;;10.52;6.63;;;6.90;99.90;;;;;;5040234;28;20035;-86
2023/11/27 02:14:19;;;;;;;9.65;6.70;;;6.90;99.90;;;;;;5074586;28;20032;-86
2023/11/27 02:16:48;;;;;;;12.73;6.47;;;6.90;99.90;;;;;;5056612;28;20031;-86
2023/11/27 02:19:14;;;;;;;9.88;6.15;;;6.80;99.90;;;;;;5057422;28;20139;-86
2023/11/27 02:21:42;;;;;;;13.93;7.07;;;6.80;99.90;;;;;;5057537;28;20032;-87
2023/11/27 02:24:08;;;;;;;10.80;6.60;;;6.80;99.90;;;;;;5055501;28;20088;-84
2023/11/27 02:26:33;;;;;;;11.27;7.10;;;6.80;99.90;;;;;;5097596;28;20027;-84
2023/11/27 02:28:59;;;;;;;8.45;6.60;;;6.80;99.90;;;;;;5080293;28;20037;-84
2023/11/27 02:31:25;;;;;;;9.63;6.63;;;6.80;99.90;;;;;;5086212;28;20490;-85
2023/11/27 02:33:51;;;;;;;9.68;7.15;;;6.80;99.90;;;;;;5040340;28;20025;-86
2023/11/27 02:36:17;;;;;;;10.93;6.75;;;6.80;99.90;;;;;;5023251;28;20078;-86
2023/11/27 02:38:42;;;;;;;9.27;6.40;;;6.80;99.90;;;;;;5039227;28;20025;-86
2023/11/27 02:41:08;;;;;;;14.98;7.45;;;6.80;99.90;;;;;;5039597;28;20064;-85
2023/11/27 02:43:34;;;;;;;13.75;7.20;;;6.80;99.90;;;;;;5039649;28;20419;-85
2023/11/27 02:46:00;;;;;;;10.80;6.18;;;6.80;99.90;;;;;;5039891;28;20476;-86
2023/11/27 02:48:26;;;;;;;9.55;6.55;;;6.80;99.90;;;;;;5055973;28;20023;-86
2023/11/27 02:50:52;;;;;;;8.98;6.50;;;6.80;99.90;;;;;;5056469;28;20048;-86
2023/11/27 02:53:18;;;;;;;10.40;6.32;;;6.80;99.90;;;;;;5039364;28;20403;-86
2023/11/27 02:55:44;;;;;;;9.93;6.68;;;6.80;99.90;;;;;;5023245;28;20029;-86
2023/11/27 02:58:10;;;;;;;10.02;6.30;;;6.80;99.90;;;;;;5039454;28;20033;-86
2023/11/27 03:00:37;;;;;;;12.10;7.00;;;6.80;99.90;;;;;;5056202;28;20033;-86
2023/11/27 03:03:03;;;;;;;10.45;6.75;;;6.80;99.90;;;;;;5056230;28;20024;-86
2023/11/27 03:05:29;;;;;;;13.80;7.22;;;6.70;99.90;;;;;;5055770;28;20028;-87
2023/11/27 03:07:55;;;;;;;11.82;7.22;;;6.80;99.90;;;;;;5055896;28;20027;-86
2023/11/27 03:10:20;;;;;;;12.25;6.78;;;6.80;99.90;;;;;;5036241;28;20088;-86
2023/11/27 03:12:46;;;;;;;13.75;7.38;;;6.70;99.90;;;;;;5035830;28;20029;-86
2023/11/27 03:15:12;;;;;;;12.30;7.30;;;6.70;99.90;;;;;;5053033;28;20112;-85
2023/11/27 03:17:37;;;;;;;13.30;7.03;;;6.70;99.90;;;;;;5035743;28;20033;-86
2023/11/27 03:20:04;;;;;;;9.05;6.78;;;6.70;99.90;;;;;;5052718;28;20487;-86
2023/11/27 03:22:31;;;;;;;11.30;6.88;;;6.70;99.90;;;;;;5052155;28;20037;-85
2023/11/27 03:24:57;;;;;;;10.50;6.63;;;6.70;99.90;;;;;;5052474;28;20460;-86
2023/11/27 03:27:22;;;;;;;12.77;7.43;;;6.70;99.90;;;;;;5052249;28;20033;-84
2023/11/27 03:29:48;;;;;;;13.57;7.32;;;6.70;99.90;;;;;;5038969;28;20044;-86
2023/11/27 03:32:14;;;;;;;12.93;7.82;;;6.70;99.90;;;;;;5056479;28;20033;-86
2023/11/27 03:34:43;;;;;;;11.23;7.05;;;6.80;99.90;;;;;;5056447;28;20076;-87
2023/11/27 03:37:09;;;;;;;10.68;6.38;;;6.70;99.90;;;;;;5056227;28;20054;-86
2023/11/27 03:39:35;;;;;;;12.00;6.78;;;6.80;99.90;;;;;;5039486;28;20104;-85
2023/11/27 03:42:01;;;;;;;11.10;7.00;;;6.80;99.90;;;;;;5023390;28;20502;-87
2023/11/27 03:44:26;;;;;;;12.43;7.55;;;6.80;99.90;;;;;;5039948;28;20029;-87
2023/11/27 03:46:52;;;;;;;11.93;6.85;;;6.80;99.90;;;;;;5057659;28;20108;-86
2023/11/27 03:49:18;;;;;;;10.55;7.10;;;6.80;99.90;;;;;;5034453;28;20325;-85
2023/11/27 03:51:44;;;;;;;9.90;6.75;;;6.80;99.90;;;;;;5080936;28;20035;-85
2023/11/27 03:54:12;;;;;;;9.15;6.47;;;6.70;99.90;;;;;;5081313;28;20040;-87
2023/11/27 03:56:38;;;;;;;13.52;6.90;;;6.70;99.90;;;;;;5081167;28;20021;-86
2023/11/27 03:59:04;;;;;;;10.00;6.15;;;6.70;99.90;;;;;;5063094;28;20044;-86
2023/11/27 04:01:30;;;;;;;8.07;5.55;;;6.70;99.90;;;;;;5055938;28;20112;-85
2023/11/27 04:03:56;;;;;;;9.10;5.45;;;6.70;99.90;;;;;;5057225;28;20025;-86
2023/11/27 04:06:23;;;;;;;9.98;6.93;;;6.70;99.90;;;;;;5039170;28;20029;-85
2023/11/27 04:08:49;;;;;;;8.43;5.75;;;6.70;99.90;;;;;;5055401;28;20049;-85
2023/11/27 04:11:14;;;;;;;9.00;5.65;;;6.70;99.90;;;;;;5056834;28;20511;-85
2023/11/27 04:13:40;;;;;;;7.63;5.43;;;6.70;99.90;;;;;;5038906;28;20128;-85
2023/11/27 04:16:08;;;;;;;7.75;5.18;;;6.70;99.90;;;;;;5057081;28;20033;-86
2023/11/27 04:18:35;;;;;;;8.85;5.10;;;6.70;99.90;;;;;;5057019;28;20159;-85
2023/11/27 04:21:00;;;;;;;10.02;5.03;;;6.70;99.90;;;;;;5039639;28;20134;-86
2023/11/27 04:23:26;;;;;;;6.15;4.63;;;6.70;99.90;;;;;;5058289;28;20132;-87
2023/11/27 04:25:52;;;;;;;8.50;5.25;;;6.70;99.90;;;;;;5025241;28;20448;-86
2023/11/27 04:28:17;;;;;;;8.00;4.70;;;6.70;99.90;;;;;;5058608;28;20099;-85
2023/11/27 04:30:43;;;;;;;6.40;4.68;;;6.70;99.90;;;;;;5061383;28;20037;-85
2023/11/27 04:33:09;;;;;;;6.45;4.50;;;6.70;99.90;;;;;;5061241;28;20101;-86
2023/11/27 04:35:34;;;;;;;7.38;4.53;;;6.70;99.90;;;;;;5062542;28;20030;-86
2023/11/27 04:38:00;;;;;;;6.63;5.10;;;6.70;99.90;;;;;;5078811;28;20033;-85
2023/11/27 04:40:26;;;;;;;7.13;5.40;;;6.70;99.90;;;;;;5070061;28;20059;-86
2023/11/27 04:42:52;;;;;;;6.55;4.57;;;6.70;99.90;;;;;;5056006;28;20040;-85
2023/11/27 04:45:18;;;;;;;6.80;4.40;;;6.70;99.90;;;;;;5038892;28;20029;-85
2023/11/27 04:47:44;;;;;;;6.35;4.05;;;6.80;99.90;;;;;;5055223;28;20042;-87
2023/11/27 04:50:10;;;;;;;7.28;4.28;;;6.70;99.90;;;;;;5056475;28;20368;-86
2023/11/27 04:52:35;;;;;;;5.13;3.60;;;6.80;99.90;;;;;;5055047;28;20021;-85
2023/11/27 04:55:03;;;;;;;5.00;4.30;;;6.70;99.90;;;;;;5056179;28;20037;-84
2023/11/27 04:57:29;;;;;;;7.65;4.35;;;6.70;99.90;;;;;;5054876;28;20465;-86
2023/11/27 04:59:55;;;;;;;7.72;4.57;;;6.70;99.90;;;;;;5056145;28;20033;-85
2023/11/27 05:02:21;;;;;;;5.18;3.90;;;6.80;99.90;;;;;;5054781;28;20040;-85
2023/11/27 05:04:46;;;;;;;7.15;4.40;;;6.70;99.90;;;;;;5054352;28;20021;-84
2023/11/27 05:07:12;;;;;;;6.93;3.67;;;6.80;99.90;;;;;;5038194;28;20127;-86
2023/11/27 05:09:41;;;;;;;7.10;4.20;;;6.80;99.90;;;;;;5054458;28;20136;-85
2023/11/27 05:12:07;;;;;;;6.43;4.10;;;6.70;99.90;;;;;;5055267;28;20180;-85
2023/11/27 05:14:32;;;;;;;4.75;3.60;;;6.70;99.90;;;;;;5063787;28;20088;-85
2023/11/27 05:16:58;;;;;;;5.35;3.80;;;6.70;99.90;;;;;;5079084;28;20009;-86
2023/11/27 05:19:24;;;;;;;5.00;3.15;;;6.70;99.90;;;;;;5079118;28;20009;-85
2023/11/27 05:21:50;;;;;;;4.28;3.35;;;6.70;99.90;;;;;;5079120;28;20081;-85
2023/11/27 05:24:18;;;;;;;5.57;3.45;;;6.70;99.90;;;;;;5025912;28;20041;-85
2023/11/27 05:26:44;;;;;;;5.63;2.83;;;6.80;99.90;;;;;;5054354;28;20457;-84
2023/11/27 05:29:11;;;;;;;4.60;3.10;;;6.70;99.90;;;;;;5037670;28;20037;-85
2023/11/27 05:31:37;;;;;;;5.22;3.10;;;6.80;99.90;;;;;;5053855;28;20036;-84
2023/11/27 05:34:05;;;;;;;3.97;3.22;;;6.80;99.90;;;;;;5054147;28;20029;-85
2023/11/27 05:36:31;;;;;;;3.40;2.72;;;6.70;99.90;;;;;;5053971;28;20040;-85
2023/11/27 05:38:57;;;;;;;3.42;2.78;;;6.70;99.90;;;;;;5037237;28;20041;-86
2023/11/27 05:41:22;;;;;;;3.88;3.15;;;6.70;99.90;;;;;;5055309;28;20036;-86
2023/11/27 05:43:48;;;;;;;3.88;2.80;;;6.70;99.90;;;;;;5053644;28;20380;-86
2023/11/27 05:46:14;;;;;;;4.93;3.30;;;6.70;99.90;;;;;;5054225;28;20381;-85
2023/11/27 05:48:40;;;;;;;4.03;2.60;;;6.80;99.90;;;;;;5036168;28;20036;-84
2023/11/27 05:51:06;;;;;;;4.03;2.67;;;6.70;99.90;;;;;;5036064;28;20029;-85
2023/11/27 05:53:32;;;;;;;3.95;2.65;;;6.70;99.90;;;;;;5036512;28;20033;-84
2023/11/27 05:55:58;;;;;;;3.33;2.80;;;6.70;99.90;;;;;;5053078;28;20369;-85
2023/11/27 05:58:24;;;;;;;4.35;2.50;;;6.70;99.90;;;;;;5036295;28;20078;-85
2023/11/27 06:00:50;;;;;;;4.00;2.97;;;6.70;99.90;;;;;;5053491;28;20060;-88
2023/11/27 06:03:16;;;;;;;3.50;2.45;;;6.70;99.90;;;;;;5036374;28;20052;-85
2023/11/27 06:05:41;;;;;;;2.72;2.33;;;6.70;99.90;;;;;;5053146;28;20029;-84
2023/11/27 06:08:07;;;;;;;4.80;2.40;;;6.70;99.90;;;;;;5054075;28;20465;-83
2023/11/27 06:10:33;;;;;;;3.13;2.40;;;6.70;99.90;;;;;;5023254;28;20064;-84
2023/11/27 06:12:59;;;;;;;3.63;2.67;;;6.60;99.90;;;;;;5039385;28;20040;-84
2023/11/27 06:15:25;;;;;;;3.20;2.55;;;6.60;99.90;;;;;;5023289;28;20028;-86
2023/11/27 06:17:50;;;;;;;3.50;2.70;;;6.60;99.90;;;;;;5023118;28;20040;-85
2023/11/27 06:20:16;;;;;;;3.22;2.70;;;6.70;99.90;;;;;;5056184;28;20459;-85
2023/11/27 06:22:42;;;;;;;4.95;2.50;;;6.70;99.90;;;;;;5056376;28;20029;-84
2023/11/27 06:25:09;;;;;;;4.05;2.70;;;6.60;99.90;;;;;;5056379;28;20027;-86
2023/11/27 06:27:35;;;;;;;3.45;2.50;;;6.60;99.90;;;;;;5056330;28;20420;-87
2023/11/27 06:30:00;;;;;;;4.50;2.95;;;6.60;99.90;;;;;;5074170;28;20131;-88
2023/11/27 06:32:26;;;;;;;4.07;2.90;;;6.70;99.90;;;;;;5056614;28;20419;-85
2023/11/27 06:34:52;;;;;;;2.72;2.47;;;6.60;99.90;;;;;;5057106;28;20480;-86
2023/11/27 06:37:18;;;;;;;2.80;2.42;;;6.60;99.90;;;;;;5073254;28;20051;-85
2023/11/27 06:39:45;;;;;;;3.78;2.05;;;6.60;99.90;;;;;;5070297;28;20013;-85
2023/11/27 06:42:14;;;;;;;3.08;2.35;;;6.60;99.90;;;;;;5080644;28;20009;-86
2023/11/27 06:44:41;;;;;;;3.10;2.13;;;6.70;99.90;;;;;;5048130;28;20135;-86
2023/11/27 06:47:07;;;;;;;3.15;2.30;;;6.60;99.90;;;;;;5063478;28;20096;-86
2023/11/27 06:49:33;;;;;;;2.22;1.85;;;6.60;99.90;;;;;;5064625;28;20028;-86
2023/11/27 06:52:00;;;;;;;3.83;1.95;;;6.60;99.90;;;;;;5055952;28;20036;-86
2023/11/27 06:54:26;;;;;;;2.40;1.98;;;6.60;99.90;;;;;;5056694;28;20029;-86
2023/11/27 06:56:52;;;;;;;2.67;1.80;;;6.60;99.90;;;;;;5056291;28;20039;-87
2023/11/27 06:59:18;;;;;;;3.28;2.22;;;6.60;99.90;;;;;;5056385;28;20457;-87
2023/11/27 07:01:44;;;;;;;2.83;2.15;;;6.50;99.90;;;;;;5039665;28;20048;-86
2023/11/27 07:04:10;;;;;;;2.25;2.00;;;6.50;99.90;;;;;;5027328;28;20067;-86
2023/11/27 07:06:39;;;;;;;2.65;1.85;;;6.50;99.90;;;;;;5043638;28;20029;-86
2023/11/27 07:09:06;;;;;;;3.22;2.20;;;6.50;99.90;;;;;;5059395;28;20459;-87
2023/11/27 07:11:35;;;;;;;2.28;2.00;;;6.50;99.90;;;;;;5059820;28;20036;-86
2023/11/27 07:14:01;;;;;;;3.60;1.73;;;6.50;99.90;;;;;;5077880;28;20040;-86
2023/11/27 07:16:28;;;;;;;6.05;2.30;;;6.50;99.90;;;;;;5043506;28;20055;-86
2023/11/27 07:18:57;;;;;;;2.53;2.17;;;6.50;99.90;;;;;;5060185;28;20040;-86
2023/11/27 07:21:27;;;;;;;2.78;2.10;;;6.50;99.90;;;;;;5027876;28;20029;-87
2023/11/27 07:23:56;;;;;;;2.72;2.13;;;6.50;99.90;;;;;;5060753;28;20048;-86
2023/11/27 07:26:24;;;;;;;3.35;2.10;;;6.50;99.90;;;;;;5077778;28;20016;-87
2023/11/27 07:28:50;;;;;;;2.20;1.98;;;6.50;99.90;;;;;;5043051;28;20493;-87
2023/11/27 07:31:18;;;;;;;3.40;2.22;;;6.50;99.90;;;;;;5059197;28;20074;-86
2023/11/27 07:33:44;;;;;;;2.67;1.95;;;6.50;99.90;;;;;;5059649;28;20118;-86
2023/11/27 07:36:10;;;;;;;3.35;2.00;;;6.50;99.90;;;;;;5026506;28;20068;-87
2023/11/27 07:38:37;;;;;;;3.72;1.95;;;6.50;99.90;;;;;;5077298;28;20028;-86
2023/11/27 07:41:06;;;;;;;3.10;2.20;;;6.50;99.90;;;;;;5043001;28;20056;-86
2023/11/27 07:43:32;;;;;;;2.92;2.10;;;6.50;99.90;;;;;;5043414;28;20040;-87
2023/11/27 07:45:58;;;;;;;3.25;2.38;;;6.50;99.90;;;;;;5042725;28;20039;-86
2023/11/27 07:48:23;;;;;;;2.30;1.80;;;6.50;99.90;;;;;;5026740;28;20392;-87
2023/11/27 07:50:50;;;;;;;2.17;1.98;;;6.50;99.90;;;;;;5059401;28;20109;-86
2023/11/27 07:53:19;;;;;;;3.55;2.10;;;6.50;99.90;;;;;;5059533;28;20033;-88
2023/11/27 07:55:44;;;;;;;3.70;1.98;;;6.50;99.90;;;;;;5043642;28;20379;-86
2023/11/27 07:58:14;;;;;;;2.80;2.20;;;6.50;99.90;;;;;;5059737;28;20043;-87
2023/11/27 08:00:40;;;;;;;2.28;1.83;;;6.50;99.90;;;;;;5060454;28;20038;-87
2023/11/27 08:03:06;;;;;;;3.28;2.10;;;6.50;99.90;;;;;;5063234;28;20044;-87
2023/11/27 08:05:32;;;;;;;2.88;2.13;;;6.50;99.90;;;;;;5048078;28;20013;-86
2023/11/27 08:07:57;;;;;;;2.75;1.80;;;6.50;99.90;;;;;;5100683;28;20031;-85
2023/11/27 08:10:23;;;;;;;2.60;2.10;;;6.50;99.90;;;;;;5063048;28;20111;-85
2023/11/27 08:12:49;;;;;;;2.53;2.10;;;6.50;99.90;;;;;;5080204;28;20009;-88
2023/11/27 08:15:18;;;;;;;4.43;2.13;;;6.50;99.90;;;;;;5061859;28;20020;-88
2023/11/27 08:17:48;;;;;;;2.45;2.10;;;6.50;99.90;;;;;;5064888;28;20040;-87
2023/11/27 08:20:15;;;;;;;2.45;1.95;;;6.50;99.90;;;;;;5057087;28;20056;-87
2023/11/27 08:22:44;;;;;;;3.25;2.13;;;6.50;99.90;;;;;;5040088;28;20107;-86
2023/11/27 08:25:10;;;;;;;2.72;2.20;;;6.50;99.90;;;;;;5057927;28;20029;-86
2023/11/27 08:27:42;;;;;;;4.20;2.53;;;6.40;99.90;;;;;;5057171;28;20373;-87
2023/11/27 08:30:10;;;;;;;2.78;2.03;;;6.50;99.90;;;;;;5058809;28;20044;-87
2023/11/27 08:32:36;;;;;;;3.20;2.50;;;6.40;99.90;;;;;;5042832;28;20100;-87
2023/11/27 08:35:07;;;;;;;4.63;2.55;;;6.50;99.90;;;;;;5065587;28;20100;-87
2023/11/27 08:37:35;;;;;;;4.70;2.47;;;6.50;99.90;;;;;;5057562;28;20010;-87
2023/11/27 08:40:06;;;;;;;3.70;2.28;;;6.50;99.90;;;;;;5073292;28;20033;-87
2023/11/27 08:42:36;;;;;;;3.08;2.70;;;6.50;99.90;;;;;;5073358;28;20013;-86
2023/11/27 08:45:10;;;;;;;3.83;2.08;;;6.50;99.90;;;;;;5051344;28;20068;-87
2023/11/27 08:47:39;;;;;;;3.05;2.58;;;6.50;99.90;;;;;;5057923;28;20017;-88
2023/11/27 08:50:13;;;;;;;2.72;2.38;;;6.50;99.90;;;;;;5039659;28;20387;-87
2023/11/27 08:52:41;;;;;;;2.75;2.45;;;6.40;99.90;;;;;;5055856;28;20029;-88
2023/11/27 08:55:08;;;;;;;3.60;2.38;;;6.50;99.90;;;;;;5038631;28;20457;-87
2023/11/27 08:57:34;;;;;;;2.35;2.15;;;6.50;99.90;;;;;;5039050;28;20170;-87
2023/11/27 09:00:04;;;;;;;3.35;2.33;;;6.50;99.90;;;;;;5055049;28;20063;-86
2023/11/27 09:02:30;;;;;;;2.67;2.30;;;6.50;99.90;;;;;;5039195;28;20357;-88
2023/11/27 09:04:56;;;;;;;2.10;1.88;;;6.50;99.90;;;;;;5038701;28;20035;-87
2023/11/27 09:07:21;;;;;;;2.63;2.00;;;6.50;99.90;;;;;;5038285;28;20119;-88
2023/11/27 09:09:48;;;;;;;3.50;2.15;;;6.50;99.90;;;;;;5038184;28;20140;-87
2023/11/27 09:12:14;;;;;;;2.47;2.03;;;6.50;99.90;;;;;;5054696;28;20037;-88
2023/11/27 09:14:40;;;;;;;2.88;2.25;;;6.50;99.90;;;;;;5056406;28;20029;-87
2023/11/27 09:17:06;;;;;;;2.95;2.42;;;6.50;99.90;;;;;;5038193;28;20124;-88
2023/11/27 09:19:31;;;;;;;2.30;2.10;;;6.50;99.90;;;;;;5021588;28;20029;-89
2023/11/27 09:21:59;;;;;;;3.90;2.22;;;6.50;99.90;;;;;;5055317;28;20025;-88
2023/11/27 09:24:25;;;;;;;2.90;1.88;;;6.50;99.90;;;;;;5038847;28;20453;-88
2023/11/27 09:26:50;;;;;;;2.47;2.08;;;6.50;99.90;;;;;;5054171;28;20044;-86
2023/11/27 09:29:16;;;;;;;2.33;2.10;;;6.50;99.90;;;;;;5043365;28;20070;-85
2023/11/27 09:31:42;;;;;;;2.97;2.10;;;6.60;99.90;;;;;;5062363;28;20029;-86
2023/11/27 09:34:07;;;;;;;2.28;2.05;;;6.60;99.90;;;;;;5045220;28;20024;-85
2023/11/27 09:36:33;;;;;;;3.50;2.35;;;6.60;99.90;;;;;;5062204;28;20009;-87
2023/11/27 09:38:59;;;;;;;3.35;2.20;;;6.60;99.90;;;;;;5066323;28;20494;-87
2023/11/27 09:41:25;;;;;;;2.17;1.98;;;6.60;99.90;;;;;;5054737;28;20025;-87
2023/11/27 09:43:52;;;;;;;3.22;2.28;;;6.60;99.90;;;;;;5038334;28;20133;-87
2023/11/27 09:46:19;;;;;;;2.65;2.00;;;6.60;99.90;;;;;;5054427;28;20051;-88
2023/11/27 09:48:45;;;;;;;3.78;2.15;;;6.70;99.90;;;;;;5054156;28;20025;-87
2023/11/27 09:51:12;;;;;;;2.97;2.10;;;6.60;99.90;;;;;;5054294;28;20064;-88
2023/11/27 09:53:46;;;;;;;3.10;1.80;;;6.70;99.90;;;;;;5054154;28;20028;-86
2023/11/27 09:56:13;;;;;;;1.90;1.80;;;6.70;99.90;;;;;;5053891;28;20555;-87
2023/11/27 09:58:42;;;;;;;2.08;1.88;;;6.70;99.90;;;;;;5053681;28;20049;-87
2023/11/27 10:01:11;;;;;;;3.20;1.98;;;6.70;99.90;;;;;;5037775;28;20025;-88
2023/11/27 10:03:39;;;;;;;2.88;2.10;;;6.70;99.90;;;;;;5053948;28;20361;-87
2023/11/27 10:06:08;;;;;;;2.13;1.75;;;6.70;99.90;;;;;;5053884;28;20036;-88
2023/11/27 10:08:37;;;;;;;2.47;2.10;;;6.70;99.90;;;;;;5022188;28;20028;-87
2023/11/27 10:11:03;;;;;;;2.40;1.80;;;6.70;99.90;;;;;;5040487;28;20037;-87
2023/11/27 10:13:36;;;;;;;2.00;1.80;;;6.70;99.90;;;;;;5056736;28;20033;-87
2023/11/27 10:16:09;;;;;;;2.17;1.90;;;6.70;99.90;;;;;;5057207;28;20029;-87
2023/11/27 10:18:35;;;;;;;2.05;1.80;;;6.80;99.90;;;;;;5057015;28;20120;-86
2023/11/27 10:21:14;;;;;;;3.45;1.98;;;6.80;99.90;;;;;;5040637;28;20039;-87
2023/11/27 10:23:41;;;;;;;2.67;2.30;;;6.80;99.90;;;;;;5057460;28;20174;-88
2023/11/27 10:26:07;;;;;;;2.22;1.85;;;6.80;99.90;;;;;;5057030;28;20078;-87
2023/11/27 10:28:45;;;;;;;2.40;2.15;;;6.80;99.90;;;;;;5040454;28;20024;-87
2023/11/27 10:31:11;;;;;;;1.80;1.55;;;6.80;99.90;;;;;;5057146;28;20131;-89
2023/11/27 10:33:37;;;;;;;1.80;1.70;;;6.80;99.90;;;;;;5057510;28;20033;-88
2023/11/27 10:36:05;;;;;;;2.03;1.70;;;6.80;99.90;;;;;;5056691;28;20482;-87
2023/11/27 10:38:31;;;;;;;2.55;1.98;;;6.80;99.90;;;;;;5056700;28;20119;-87
2023/11/27 10:41:00;;;;;;;1.92;1.70;;;6.80;99.90;;;;;;5056579;28;20063;-86
2023/11/27 10:43:27;;;;;;;1.90;1.70;;;6.80;99.90;;;;;;5074257;28;20128;-87
2023/11/27 10:45:55;;;;;;;2.20;2.00;;;6.80;99.90;;;;;;5040168;28;20124;-87
2023/11/27 10:48:22;;;;;;;2.17;1.73;;;6.90;99.90;;;;;;5040239;28;20464;-87
2023/11/27 10:50:51;;;;;;;1.90;1.70;;;6.90;99.90;;;;;;5056962;28;20044;-87
2023/11/27 10:53:21;;;;;;;1.83;1.70;;;6.80;99.90;;;;;;5057035;28;20020;-87
2023/11/27 10:55:48;;;;;;;1.75;1.65;;;6.90;99.90;;;;;;5055761;28;20013;-85
2023/11/27 10:58:15;;;;;;;1.70;1.60;;;6.80;99.90;;;;;;5098039;28;20012;-85
2023/11/27 11:00:46;;;;;;;1.88;1.67;;;6.90;99.90;;;;;;5064053;28;20039;-87
2023/11/27 11:03:23;;;;;;;3.13;1.63;;;6.90;99.90;;;;;;5078573;28;20035;-87
2023/11/27 11:05:50;;;;;;;1.90;1.75;;;6.90;99.90;;;;;;5058623;28;20460;-88
2023/11/27 11:08:23;;;;;;;2.08;1.83;;;6.90;99.90;;;;;;5076105;28;20043;-88
2023/11/27 11:10:49;;;;;;;1.80;1.70;;;6.90;99.90;;;;;;5075647;28;20134;-87
2023/11/27 11:13:18;;;;;;;1.80;1.70;;;6.90;99.90;;;;;;5040534;28;20028;-89
2023/11/27 11:15:50;;;;;;;1.95;1.83;;;6.90;99.90;;;;;;5040083;28;20040;-87
2023/11/27 11:18:43;;;;;;;2.28;2.08;;;7.00;99.90;;;;;;5074710;28;20029;-87
2023/11/27 11:21:12;;;;;;;1.98;1.77;;;7.00;99.90;;;;;;5056539;28;20029;-87
2023/11/27 11:24:08;;;;;;;3.65;1.52;;;7.00;99.90;;;;;;5056486;28;20064;-87
2023/11/27 11:26:56;;;;;;;1.60;1.50;;;7.00;99.90;;;;;;5074357;28;20020;-88
2023/11/27 11:29:33;;;;;;;1.75;1.50;;;7.00;99.90;;;;;;5056200;28;20041;-88
2023/11/27 11:32:08;;;;;;;3.05;1.75;;;7.00;99.90;;;;;;5073950;28;20410;-87
2023/11/27 11:34:40;;;;;;;1.60;1.50;;;7.10;99.90;;;;;;5040249;28;20035;-87
2023/11/27 11:37:07;;;;;;;1.75;1.55;;;7.10;99.90;;;;;;5056280;28;20024;-87
2023/11/27 11:39:36;;;;;;;2.17;1.67;;;7.10;99.90;;;;;;5074004;28;20024;-87
2023/11/27 11:42:13;;;;;;;1.80;1.70;;;7.10;99.90;;;;;;5022821;28;20024;-87
2023/11/27 11:44:39;;;;;;;1.63;1.52;;;7.10;99.90;;;;;;5073823;28;20016;-87
2023/11/27 11:47:21;;;;;;;1.95;1.83;;;7.10;99.90;;;;;;5055903;28;20021;-88
2023/11/27 11:50:18;;;;;;;1.75;1.65;;;7.10;99.90;;;;;;5058082;28;20434;-87
2023/11/27 11:52:45;;;;;;;1.67;1.58;;;7.10;99.90;;;;;;5060605;28;20036;-88
2023/11/27 11:55:21;;;;;;;1.70;1.60;;;7.10;99.90;;;;;;5077738;28;20119;-89
2023/11/27 11:57:48;;;;;;;1.75;1.58;;;7.10;99.90;;;;;;5077764;28;20029;-87
2023/11/27 12:00:22;;;;;;;1.85;1.63;;;7.20;99.90;;;;;;5043257;28;20036;-87
2023/11/27 12:02:54;;;;;;;1.48;1.30;;;7.20;99.90;;;;;;5077251;28;20399;-87
2023/11/27 12:05:23;;;;;;;1.38;1.27;;;7.20;99.90;;;;;;5043001;28;20050;-84
2023/11/27 12:07:50;;;;;;;1.73;1.63;;;7.20;99.90;;;;;;5027068;28;20063;-87
2023/11/27 12:10:17;;;;;;;1.40;1.30;;;7.20;99.90;;;;;;5059285;28;20044;-88
2023/11/27 12:12:49;;;;;;;1.48;1.38;;;7.20;99.90;;;;;;5077318;28;20036;-88
2023/11/27 12:15:16;;;;;;;2.05;1.48;;;7.30;99.90;;;;;;5059822;28;20054;-88
2023/11/27 12:17:50;;;;;;;2.00;1.50;;;7.30;99.90;;;;;;5060264;28;20052;-87
2023/11/27 12:20:21;;;;;;;1.73;1.58;;;7.30;99.90;;;;;;5065678;28;20021;-88
2023/11/27 12:22:50;;;;;;;;;;;7.30;99.90;;;;;;5083688;28;20021;-87
2023/11/27 12:25:19;;;;;;;2.85;1.60;;;7.30;99.90;;;;;;5100108;28;19909;-88
2023/11/27 12:27:46;;;;;;;1.48;1.38;;;7.30;99.90;;;;;;5082305;28;20013;-88
2023/11/27 12:30:20;;;;;;;2.03;1.52;;;7.30;99.90;;;;;;5042453;28;20032;-88
2023/11/27 12:32:50;;;;;;;1.85;1.55;;;7.30;99.90;;;;;;5059161;28;20028;-87
2023/11/27 12:35:21;;;;;;;2.17;1.30;;;7.40;99.90;;;;;;5059225;28;20031;-87
2023/11/27 12:37:48;;;;;;;1.80;1.70;;;7.40;99.90;;;;;;5076844;28;20028;-87
2023/11/27 12:40:20;;;;;;;1.40;1.25;;;7.40;99.90;;;;;;5076791;28;20032;-86
2023/11/27 12:42:47;;;;;;;1.50;1.40;;;7.30;99.90;;;;;;5042380;28;20032;-88
2023/11/27 12:45:21;;;;;;;1.70;1.60;;;7.40;99.90;;;;;;5041945;28;20035;-86
2023/11/27 12:47:53;;;;;;;1.90;1.70;;;7.40;99.90;;;;;;5076531;28;20023;-87
2023/11/27 12:50:23;;;;;;;2.55;1.48;;;7.40;99.90;;;;;;5042768;28;20041;-87
2023/11/27 12:52:50;;;;;;;2.05;1.85;;;7.40;99.90;;;;;;5058497;28;20486;-87
2023/11/27 12:55:17;;;;;;;2.10;1.90;;;7.40;99.90;;;;;;5042499;28;20078;-87
2023/11/27 12:57:45;;;;;;;2.30;1.60;;;7.30;99.90;;;;;;5058623;28;20103;-88